Time;durP1;ratioP1;P1;durP2;ratioP2;P2;SDS_P1;SDS_P2;PMS_P1;PMS_P2;Temp;Humidity;BMP_temperature;BMP_pressure;BME280_temperature;BME280_humidity;BME280_pressure;Samples;Min_cycle;Max_cycle;Signal;HPM_P1;HPM_P2
2024/02/04 00:00:30;;;;;;;15.50;3.10;;;10.40;99.90;;;;;;5075336;28;20246;-81
2024/02/04 00:02:56;;;;;;;17.07;3.60;;;10.40;99.90;;;;;;5074556;28;20164;-80
2024/02/04 00:05:22;;;;;;;16.40;3.73;;;10.40;99.90;;;;;;5074216;28;20482;-80
2024/02/04 00:07:47;;;;;;;16.90;3.40;;;10.40;99.90;;;;;;5056483;28;20192;-80
2024/02/04 00:10:15;;;;;;;17.00;4.00;;;10.50;99.90;;;;;;5055879;28;20601;-80
2024/02/04 00:12:41;;;;;;;15.75;3.38;;;10.50;99.90;;;;;;5056537;28;20188;-80
2024/02/04 00:15:08;;;;;;;19.10;3.10;;;10.50;99.90;;;;;;5074459;28;20242;-80
2024/02/04 00:17:34;;;;;;;17.85;4.18;;;10.50;99.90;;;;;;5056632;28;20418;-80
2024/02/04 00:20:05;;;;;;;16.35;4.00;;;10.40;99.90;;;;;;5055555;28;20169;-80
2024/02/04 00:22:34;;;;;;;16.05;3.13;;;10.40;99.90;;;;;;5075446;28;20206;-80
2024/02/04 00:25:06;;;;;;;19.75;3.03;;;10.40;99.90;;;;;;5078700;28;20172;-80
2024/02/04 00:27:32;;;;;;;14.63;2.45;;;10.40;99.90;;;;;;5059456;28;20192;-81
2024/02/04 00:29:58;;;;;;;16.48;2.65;;;10.40;99.90;;;;;;5078727;28;20248;-80
2024/02/04 00:32:25;;;;;;;15.30;2.73;;;10.40;99.90;;;;;;5078240;28;20203;-79
2024/02/04 00:34:51;;;;;;;14.80;2.10;;;10.30;99.90;;;;;;5078403;28;20442;-79
2024/02/04 00:37:17;;;;;;;16.10;2.33;;;10.30;99.90;;;;;;5059129;28;20552;-79
2024/02/04 00:39:43;;;;;;;14.87;1.83;;;10.40;99.90;;;;;;5078048;28;20161;-79
2024/02/04 00:42:08;;;;;;;14.50;2.03;;;10.40;99.90;;;;;;5059371;28;20191;-80
2024/02/04 00:44:34;;;;;;;14.53;1.67;;;10.30;99.90;;;;;;5078123;28;20157;-80
2024/02/04 00:47:00;;;;;;;14.40;1.60;;;10.30;99.90;;;;;;5059928;28;20722;-79
2024/02/04 00:49:26;;;;;;;14.10;1.57;;;10.30;99.90;;;;;;5077533;28;20687;-79
2024/02/04 00:51:52;;;;;;;13.80;1.38;;;10.30;99.90;;;;;;5078284;28;20251;-80
2024/02/04 00:54:18;;;;;;;14.00;1.47;;;10.30;99.90;;;;;;5077882;28;20649;-80
2024/02/04 00:56:47;;;;;;;13.87;1.33;;;10.30;99.90;;;;;;5059617;28;20783;-79
2024/02/04 00:59:12;;;;;;;13.80;0.88;;;10.20;99.90;;;;;;5078569;28;20637;-79
2024/02/04 01:01:38;;;;;;;13.80;1.10;;;10.30;99.90;;;;;;5077272;28;20218;-79
2024/02/04 01:04:04;;;;;;;14.00;1.10;;;10.30;99.90;;;;;;5059590;28;20294;-79
2024/02/04 01:06:30;;;;;;;13.57;0.93;;;10.30;99.90;;;;;;5059545;28;20210;-79
2024/02/04 01:08:58;;;;;;;13.60;1.10;;;10.20;99.90;;;;;;5077500;28;20489;-79
2024/02/04 01:11:24;;;;;;;13.45;0.90;;;10.20;99.90;;;;;;5077967;28;20237;-80
2024/02/04 01:13:50;;;;;;;14.63;0.90;;;10.20;99.90;;;;;;5077782;28;20676;-80
2024/02/04 01:16:15;;;;;;;13.80;1.10;;;10.20;99.90;;;;;;5059651;28;20168;-79
2024/02/04 01:18:41;;;;;;;15.80;0.90;;;10.20;99.90;;;;;;5077408;28;20260;-79
2024/02/04 01:21:08;;;;;;;14.40;0.93;;;10.30;99.90;;;;;;5077252;28;20161;-79
2024/02/04 01:23:34;;;;;;;13.90;0.90;;;10.20;99.90;;;;;;5077195;28;20164;-79
2024/02/04 01:26:00;;;;;;;13.30;0.70;;;10.30;99.90;;;;;;5076873;28;20638;-79
2024/02/04 01:28:26;;;;;;;13.53;0.70;;;10.20;99.90;;;;;;5076631;28;20876;-80
2024/02/04 01:30:51;;;;;;;13.37;0.70;;;10.30;99.90;;;;;;5059012;28;20218;-79
2024/02/04 01:33:17;;;;;;;14.10;1.00;;;10.30;99.90;;;;;;5077433;28;20234;-78
2024/02/04 01:35:43;;;;;;;13.17;0.80;;;10.20;99.90;;;;;;5076133;28;20167;-80
2024/02/04 01:38:08;;;;;;;13.27;0.80;;;10.20;99.90;;;;;;5076310;28;20208;-79
2024/02/04 01:40:34;;;;;;;13.70;1.10;;;10.30;99.90;;;;;;5076647;28;20243;-80
2024/02/04 01:42:59;;;;;;;13.43;0.90;;;10.20;99.90;;;;;;5077398;28;20634;-80
2024/02/04 01:45:25;;;;;;;13.60;0.80;;;10.20;99.90;;;;;;5077460;28;20167;-79
2024/02/04 01:47:51;;;;;;;13.50;0.90;;;10.30;99.90;;;;;;5077230;28;20233;-79
2024/02/04 01:50:17;;;;;;;13.37;0.70;;;10.20;99.90;;;;;;5077163;28;20285;-80
2024/02/04 01:52:43;;;;;;;14.10;0.80;;;10.20;99.90;;;;;;5077135;28;20399;-79
2024/02/04 01:55:10;;;;;;;13.32;0.80;;;10.30;99.90;;;;;;5077331;28;20541;-79
2024/02/04 01:57:36;;;;;;;13.55;0.90;;;10.30;99.90;;;;;;5077090;28;20177;-78
2024/02/04 02:00:04;;;;;;;13.33;0.80;;;10.30;99.90;;;;;;5059293;28;20191;-79
2024/02/04 02:02:30;;;;;;;13.57;1.00;;;10.30;99.90;;;;;;5076797;28;20919;-78
2024/02/04 02:04:57;;;;;;;13.73;0.90;;;10.30;99.90;;;;;;5077125;28;20157;-79
2024/02/04 02:07:27;;;;;;;14.30;0.88;;;10.30;99.90;;;;;;5076608;28;20184;-79
2024/02/04 02:09:53;;;;;;;13.73;1.00;;;10.30;99.90;;;;;;5077044;28;20164;-79
2024/02/04 02:12:33;;;;;;;13.27;0.93;;;10.30;99.90;;;;;;5076598;28;20167;-78
2024/02/04 02:15:18;;;;;;;13.82;1.20;;;10.30;99.90;;;;;;5077192;28;20203;-80
2024/02/04 02:17:58;;;;;;;13.68;1.15;;;10.30;99.90;;;;;;5076587;28;20208;-78
2024/02/04 02:20:27;;;;;;;14.68;1.40;;;10.30;99.90;;;;;;5077097;28;20167;-80
2024/02/04 02:23:17;;;;;;;14.45;1.48;;;10.30;99.90;;;;;;5077321;28;20161;-79
2024/02/04 02:25:45;;;;;;;14.32;1.15;;;10.40;99.90;;;;;;5077140;28;20191;-79
2024/02/04 02:28:12;;;;;;;13.90;1.35;;;10.40;99.90;;;;;;5076774;28;20176;-79
2024/02/04 02:30:37;;;;;;;13.40;1.17;;;10.40;99.90;;;;;;5076953;28;20166;-79
2024/02/04 02:33:06;;;;;;;13.93;1.30;;;10.40;99.90;;;;;;5077335;28;20243;-80
2024/02/04 02:35:32;;;;;;;14.02;1.50;;;10.40;99.90;;;;;;5076641;28;20193;-79
2024/02/04 02:38:16;;;;;;;14.23;1.30;;;10.40;99.90;;;;;;5075707;28;20232;-80
2024/02/04 02:40:51;;;;;;;14.05;1.25;;;10.40;99.90;;;;;;5077287;28;20182;-79
2024/02/04 02:43:17;;;;;;;14.65;1.85;;;10.50;99.90;;;;;;5075775;28;20148;-79
2024/02/04 02:45:44;;;;;;;13.98;1.50;;;10.50;99.90;;;;;;5076666;28;20165;-79
2024/02/04 02:48:11;;;;;;;14.52;1.42;;;10.50;99.90;;;;;;5076648;28;20271;-79
2024/02/04 02:50:38;;;;;;;14.95;1.67;;;10.50;99.90;;;;;;5076915;28;20526;-80
2024/02/04 02:53:04;;;;;;;17.65;2.20;;;10.50;99.90;;;;;;5076667;28;20176;-79
2024/02/04 02:55:29;;;;;;;14.20;1.52;;;10.50;99.90;;;;;;5076319;28;20699;-78
2024/02/04 02:57:55;;;;;;;13.67;1.23;;;10.50;99.90;;;;;;5076524;28;20180;-79
2024/02/04 03:00:21;;;;;;;14.57;1.67;;;10.50;99.90;;;;;;5076389;28;20160;-79
2024/02/04 03:02:47;;;;;;;14.47;1.30;;;10.50;99.90;;;;;;5076313;28;20217;-80
2024/02/04 03:05:15;;;;;;;15.10;2.00;;;10.50;99.90;;;;;;5076975;28;20165;-79
2024/02/04 03:07:40;;;;;;;14.88;1.75;;;10.50;99.90;;;;;;5076172;28;20190;-80
2024/02/04 03:10:06;;;;;;;14.43;1.70;;;10.50;99.90;;;;;;5076372;28;20164;-79
2024/02/04 03:12:32;;;;;;;14.27;1.70;;;10.50;99.90;;;;;;5076565;28;20156;-79
2024/02/04 03:14:58;;;;;;;13.43;1.20;;;10.60;99.90;;;;;;5076091;28;20447;-79
2024/02/04 03:17:23;;;;;;;14.20;1.70;;;10.60;99.90;;;;;;5075937;28;20184;-80
2024/02/04 03:19:51;;;;;;;14.63;1.70;;;10.60;99.90;;;;;;5076866;28;20160;-80
2024/02/04 03:22:17;;;;;;;14.65;1.27;;;10.60;99.90;;;;;;5075925;28;20248;-79
2024/02/04 03:24:43;;;;;;;14.67;1.60;;;10.60;99.90;;;;;;5075778;28;20241;-80
2024/02/04 03:27:09;;;;;;;14.87;1.47;;;10.60;99.90;;;;;;5058542;28;20429;-79
2024/02/04 03:29:35;;;;;;;14.00;1.35;;;10.60;99.90;;;;;;5058873;28;20780;-79
2024/02/04 03:32:01;;;;;;;14.40;1.60;;;10.60;99.90;;;;;;5076652;28;20169;-80
2024/02/04 03:34:27;;;;;;;13.75;1.15;;;10.60;99.90;;;;;;5076084;28;20279;-79
2024/02/04 03:36:52;;;;;;;13.80;1.20;;;10.60;99.90;;;;;;5076384;28;20212;-79
2024/02/04 03:39:18;;;;;;;15.77;1.70;;;10.60;99.90;;;;;;5076101;28;20234;-79
2024/02/04 03:41:47;;;;;;;14.20;1.40;;;10.60;99.90;;;;;;5076392;28;20223;-79
2024/02/04 03:44:12;;;;;;;14.77;1.80;;;10.60;99.90;;;;;;5076055;28;20164;-79
2024/02/04 03:46:39;;;;;;;14.60;1.87;;;10.60;99.90;;;;;;5076368;28;20164;-80
2024/02/04 03:49:07;;;;;;;13.85;1.60;;;10.70;99.90;;;;;;5059996;28;20713;-80
2024/02/04 03:51:33;;;;;;;14.60;1.85;;;10.70;99.90;;;;;;5061404;28;20641;-80
2024/02/04 03:53:58;;;;;;;14.20;1.60;;;10.70;99.90;;;;;;5077874;28;20184;-79
2024/02/04 03:56:27;;;;;;;15.70;2.30;;;10.70;99.90;;;;;;5077495;28;20165;-79
2024/02/04 03:58:52;;;;;;;14.30;1.73;;;10.70;99.90;;;;;;5075940;28;20157;-79
2024/02/04 04:01:18;;;;;;;14.70;1.80;;;10.70;99.90;;;;;;5076885;28;20164;-79
2024/02/04 04:03:43;;;;;;;13.77;1.40;;;10.70;99.90;;;;;;5077217;28;20525;-80
2024/02/04 04:06:10;;;;;;;14.70;2.00;;;10.70;99.90;;;;;;5076246;28;20604;-80
2024/02/04 04:08:36;;;;;;;14.25;1.73;;;10.70;99.90;;;;;;5077379;28;20216;-80
2024/02/04 04:11:02;;;;;;;16.15;1.88;;;10.70;99.90;;;;;;5058615;28;20172;-79
2024/02/04 04:13:27;;;;;;;14.73;1.90;;;10.60;99.90;;;;;;5076933;28;20526;-79
2024/02/04 04:15:54;;;;;;;14.10;1.43;;;10.60;99.90;;;;;;5076250;28;20853;-80
2024/02/04 04:18:19;;;;;;;14.98;1.77;;;10.70;99.90;;;;;;5075636;28;20579;-79
2024/02/04 04:20:45;;;;;;;13.97;1.50;;;10.70;99.90;;;;;;5057622;28;20168;-80
2024/02/04 04:23:18;;;;;;;14.60;1.80;;;10.70;99.90;;;;;;5078677;28;20161;-81
2024/02/04 04:25:44;;;;;;;14.20;1.65;;;10.70;99.90;;;;;;5079998;28;20387;-80
2024/02/04 04:28:13;;;;;;;14.00;1.70;;;10.70;99.90;;;;;;5078457;28;20176;-80
2024/02/04 04:30:38;;;;;;;15.52;2.03;;;10.70;99.90;;;;;;5079940;28;20161;-79
2024/02/04 04:33:04;;;;;;;14.07;1.60;;;10.70;99.90;;;;;;5078991;28;20214;-80
2024/02/04 04:35:30;;;;;;;13.60;1.40;;;10.70;99.90;;;;;;5058946;28;20164;-80
2024/02/04 04:37:55;;;;;;;14.50;1.60;;;10.70;99.90;;;;;;5076002;28;20443;-80
2024/02/04 04:40:21;;;;;;;14.20;1.73;;;10.70;99.90;;;;;;5075861;28;20157;-80
2024/02/04 04:42:47;;;;;;;14.23;1.80;;;10.80;99.90;;;;;;5075525;28;20168;-79
2024/02/04 04:45:14;;;;;;;14.90;1.80;;;10.80;99.90;;;;;;5075368;28;20165;-80
2024/02/04 04:47:39;;;;;;;15.23;1.70;;;10.70;99.90;;;;;;5057459;28;20313;-80
2024/02/04 04:50:05;;;;;;;14.57;2.23;;;10.70;99.90;;;;;;5075694;28;20657;-80
2024/02/04 04:52:31;;;;;;;14.60;2.38;;;10.80;99.90;;;;;;5057998;28;20250;-80
2024/02/04 04:54:57;;;;;;;14.80;1.73;;;10.80;99.90;;;;;;5075218;28;20220;-80
2024/02/04 04:57:23;;;;;;;14.47;2.40;;;10.80;99.90;;;;;;5077791;28;20181;-80
2024/02/04 04:59:48;;;;;;;16.70;2.73;;;10.80;99.90;;;;;;5075245;28;20168;-80
2024/02/04 05:02:14;;;;;;;15.00;2.10;;;10.80;99.90;;;;;;5075617;28;20452;-80
2024/02/04 05:04:44;;;;;;;17.80;3.07;;;10.80;99.90;;;;;;5074736;28;20169;-80
2024/02/04 05:07:10;;;;;;;19.30;2.90;;;10.80;99.90;;;;;;5075307;28;20531;-80
2024/02/04 05:09:36;;;;;;;14.90;2.20;;;10.80;99.90;;;;;;5076453;28;20169;-78
2024/02/04 05:12:03;;;;;;;16.43;2.93;;;10.80;99.90;;;;;;5079266;28;20182;-80
2024/02/04 05:14:28;;;;;;;14.75;2.22;;;10.80;99.90;;;;;;5078931;28;20253;-80
2024/02/04 05:16:54;;;;;;;15.37;2.77;;;10.80;99.90;;;;;;5079216;28;20180;-80
2024/02/04 05:19:20;;;;;;;16.10;2.23;;;10.80;99.90;;;;;;5078705;28;20557;-80
2024/02/04 05:21:45;;;;;;;15.70;2.63;;;10.80;99.90;;;;;;5079197;28;20165;-80
2024/02/04 05:24:11;;;;;;;15.00;2.50;;;10.80;99.90;;;;;;5078981;28;20618;-79
2024/02/04 05:26:37;;;;;;;15.60;2.60;;;10.80;99.90;;;;;;5078728;28;20192;-80
2024/02/04 05:29:02;;;;;;;14.30;1.90;;;10.80;99.90;;;;;;5078878;28;20161;-80
2024/02/04 05:31:28;;;;;;;14.57;2.17;;;10.80;99.90;;;;;;5078214;28;20653;-80
2024/02/04 05:33:53;;;;;;;15.37;2.30;;;10.80;99.90;;;;;;5078565;28;20188;-80
2024/02/04 05:36:19;;;;;;;14.70;2.17;;;10.80;99.90;;;;;;5078644;28;20172;-80
2024/02/04 05:38:46;;;;;;;14.70;2.13;;;10.80;99.90;;;;;;5079251;28;20202;-80
2024/02/04 05:41:11;;;;;;;14.35;1.73;;;10.80;99.90;;;;;;5060744;28;20161;-80
2024/02/04 05:43:38;;;;;;;14.47;2.20;;;10.80;99.90;;;;;;5078589;28;20187;-80
2024/02/04 05:46:04;;;;;;;14.93;1.77;;;10.80;99.90;;;;;;5078562;28;20403;-80
2024/02/04 05:48:29;;;;;;;16.00;2.03;;;10.80;99.90;;;;;;5077858;28;20189;-80
2024/02/04 05:50:55;;;;;;;16.10;2.47;;;10.80;99.90;;;;;;5066228;28;20176;-81
2024/02/04 05:53:21;;;;;;;15.87;2.33;;;10.80;99.90;;;;;;5085290;28;20169;-81
2024/02/04 05:55:47;;;;;;;14.53;1.80;;;10.70;99.90;;;;;;5084971;28;20161;-81
2024/02/04 05:58:13;;;;;;;15.27;2.20;;;10.70;99.90;;;;;;5084137;28;20176;-81
2024/02/04 06:00:40;;;;;;;15.90;2.20;;;10.80;99.90;;;;;;5083336;28;20406;-80
2024/02/04 06:03:06;;;;;;;15.00;2.08;;;10.80;99.90;;;;;;5079949;28;20165;-80
2024/02/04 06:05:32;;;;;;;14.57;1.92;;;10.80;99.90;;;;;;5061112;28;20172;-80
2024/02/04 06:07:58;;;;;;;16.03;2.40;;;10.80;99.90;;;;;;5060087;28;20181;-80
2024/02/04 06:10:23;;;;;;;15.90;2.50;;;10.80;99.90;;;;;;5060473;28;20403;-80
2024/02/04 06:12:49;;;;;;;14.70;2.33;;;10.80;99.90;;;;;;5077575;28;20657;-80
2024/02/04 06:15:15;;;;;;;14.57;2.20;;;10.80;99.90;;;;;;5078583;28;20188;-80
2024/02/04 06:17:41;;;;;;;19.38;2.30;;;10.80;99.90;;;;;;5079136;28;20229;-80
2024/02/04 06:20:08;;;;;;;16.17;3.25;;;10.80;99.90;;;;;;5078610;28;20180;-80
2024/02/04 06:22:35;;;;;;;16.00;2.83;;;10.80;99.90;;;;;;5078969;28;20616;-80
2024/02/04 06:25:01;;;;;;;15.45;2.30;;;10.80;99.90;;;;;;5078366;28;20580;-80
2024/02/04 06:27:27;;;;;;;15.68;2.55;;;10.80;99.90;;;;;;5078456;28;20192;-80
2024/02/04 06:29:52;;;;;;;17.83;3.20;;;10.80;99.90;;;;;;5079314;28;20294;-79
2024/02/04 06:32:21;;;;;;;15.47;3.13;;;10.70;99.90;;;;;;5061211;28;20172;-80
2024/02/04 06:34:46;;;;;;;16.83;3.85;;;10.80;99.90;;;;;;5079164;28;20195;-80
2024/02/04 06:37:12;;;;;;;16.77;2.80;;;10.80;99.90;;;;;;5078515;28;20184;-80
2024/02/04 06:39:38;;;;;;;15.93;2.80;;;10.80;99.90;;;;;;5078892;28;20252;-81
2024/02/04 06:42:04;;;;;;;14.98;2.45;;;10.80;99.90;;;;;;5079150;28;20168;-80
2024/02/04 06:44:30;;;;;;;16.47;2.80;;;10.80;99.90;;;;;;5078461;28;20214;-80
2024/02/04 06:46:55;;;;;;;15.17;2.10;;;10.80;99.90;;;;;;5060410;28;20427;-80
2024/02/04 06:49:21;;;;;;;14.77;2.33;;;10.80;99.90;;;;;;5077503;28;20553;-79
2024/02/04 06:51:47;;;;;;;15.23;2.10;;;10.80;99.90;;;;;;5059800;28;20175;-80
2024/02/04 06:54:13;;;;;;;17.00;2.45;;;10.80;99.90;;;;;;5076610;28;20188;-80
2024/02/04 06:56:39;;;;;;;15.50;1.80;;;10.80;99.90;;;;;;5077502;28;20538;-80
2024/02/04 06:59:05;;;;;;;15.18;1.88;;;10.80;99.90;;;;;;5059463;28;20206;-80
2024/02/04 07:01:31;;;;;;;15.03;1.90;;;10.80;99.90;;;;;;5076456;28;20222;-80
2024/02/04 07:03:57;;;;;;;14.90;1.38;;;10.80;99.90;;;;;;5058883;28;20172;-79
2024/02/04 07:06:22;;;;;;;13.93;1.33;;;10.80;99.90;;;;;;5077032;28;20170;-80
2024/02/04 07:08:48;;;;;;;14.20;1.67;;;10.80;99.90;;;;;;5076273;28;20679;-79
2024/02/04 07:11:14;;;;;;;15.57;1.47;;;10.70;99.90;;;;;;5058880;28;20717;-80
2024/02/04 07:13:39;;;;;;;14.10;1.50;;;10.70;99.90;;;;;;5075548;28;20204;-80
2024/02/04 07:16:05;;;;;;;13.87;1.27;;;10.70;99.90;;;;;;5076103;28;20171;-80
2024/02/04 07:18:31;;;;;;;14.70;1.83;;;10.70;99.90;;;;;;5057928;28;20189;-80
2024/02/04 07:20:57;;;;;;;15.00;1.50;;;10.70;99.90;;;;;;5076640;28;20192;-79
2024/02/04 07:23:22;;;;;;;14.00;1.43;;;10.70;99.90;;;;;;5076792;28;20213;-81
2024/02/04 07:25:48;;;;;;;13.77;1.30;;;10.70;99.90;;;;;;5076786;28;20249;-80
2024/02/04 07:28:14;;;;;;;15.20;1.37;;;10.70;99.90;;;;;;5077003;28;20176;-79
2024/02/04 07:30:40;;;;;;;14.60;1.40;;;10.70;99.90;;;;;;5076393;28;20477;-80
2024/02/04 07:33:05;;;;;;;13.93;1.30;;;10.70;99.90;;;;;;5057804;28;20187;-80
2024/02/04 07:35:32;;;;;;;14.13;1.73;;;10.70;99.90;;;;;;5076522;28;20197;-79
2024/02/04 07:37:57;;;;;;;13.77;1.25;;;10.70;99.90;;;;;;5075975;28;20568;-80
2024/02/04 07:40:23;;;;;;;14.03;1.53;;;10.70;99.90;;;;;;5076256;28;20156;-80
2024/02/04 07:42:49;;;;;;;14.90;1.60;;;10.60;99.90;;;;;;5075778;28;20175;-80
2024/02/04 07:45:15;;;;;;;13.73;1.20;;;10.70;99.90;;;;;;5075670;28;20587;-80
2024/02/04 07:47:41;;;;;;;13.60;1.23;;;10.70;99.90;;;;;;5057634;28;20604;-80
2024/02/04 07:50:07;;;;;;;13.55;1.27;;;10.70;99.90;;;;;;5076149;28;20430;-80
2024/02/04 07:52:33;;;;;;;13.55;1.00;;;10.70;99.90;;;;;;5076097;28;20169;-79
2024/02/04 07:54:58;;;;;;;13.37;1.07;;;10.70;99.90;;;;;;5076219;28;20659;-79
2024/02/04 07:57:24;;;;;;;13.97;1.30;;;10.70;99.90;;;;;;5075664;28;20549;-80
2024/02/04 07:59:50;;;;;;;13.67;1.20;;;10.70;99.90;;;;;;5075203;28;20168;-81
2024/02/04 08:02:15;;;;;;;13.80;1.40;;;10.70;99.90;;;;;;5076114;28;20165;-80
2024/02/04 08:04:41;;;;;;;13.83;1.10;;;10.70;99.90;;;;;;5076523;28;20169;-80
2024/02/04 08:07:07;;;;;;;13.73;1.30;;;10.70;99.90;;;;;;5076280;28;20185;-80
2024/02/04 08:09:33;;;;;;;13.37;0.97;;;10.70;99.90;;;;;;5058216;28;20540;-80
2024/02/04 08:11:59;;;;;;;13.73;1.00;;;10.80;99.90;;;;;;5077983;28;20713;-80
2024/02/04 08:14:24;;;;;;;13.90;1.10;;;10.80;99.90;;;;;;5080300;28;20195;-80
2024/02/04 08:16:50;;;;;;;13.60;1.20;;;10.90;99.90;;;;;;5078607;28;20185;-80
2024/02/04 08:19:16;;;;;;;13.60;1.20;;;10.90;99.90;;;;;;5076270;28;20533;-80
2024/02/04 08:21:42;;;;;;;13.85;1.15;;;11.00;99.90;;;;;;5075636;28;20181;-79
2024/02/04 08:24:07;;;;;;;13.60;0.97;;;10.90;99.90;;;;;;5076536;28;20164;-80
2024/02/04 08:26:33;;;;;;;14.67;1.37;;;10.90;99.90;;;;;;5077521;28;20691;-80
2024/02/04 08:28:59;;;;;;;15.17;1.67;;;10.90;99.90;;;;;;5079123;28;20687;-80
2024/02/04 08:31:25;;;;;;;14.30;1.20;;;11.00;99.90;;;;;;5078177;28;20218;-80
2024/02/04 08:33:52;;;;;;;15.65;1.83;;;11.00;99.90;;;;;;5062095;28;20219;-80
2024/02/04 08:36:18;;;;;;;13.65;1.15;;;11.00;99.90;;;;;;5076453;28;20170;-80
2024/02/04 08:38:44;;;;;;;13.85;1.13;;;11.00;99.90;;;;;;5075084;28;20196;-79
2024/02/04 08:41:10;;;;;;;14.03;1.77;;;11.00;99.90;;;;;;5076381;28;20695;-79
2024/02/04 08:43:36;;;;;;;14.40;1.50;;;11.00;99.90;;;;;;5076950;28;20213;-81
2024/02/04 08:46:02;;;;;;;14.93;1.70;;;11.00;99.90;;;;;;5082109;28;20770;-80
2024/02/04 08:48:28;;;;;;;14.85;1.40;;;11.00;99.90;;;;;;5065121;28;20426;-81
2024/02/04 08:50:56;;;;;;;14.70;1.37;;;11.00;99.90;;;;;;5081889;28;20187;-81
2024/02/04 08:53:23;;;;;;;14.23;1.60;;;11.00;99.90;;;;;;5079876;28;20164;-80
2024/02/04 08:55:49;;;;;;;14.70;1.60;;;11.00;99.90;;;;;;5080320;28;20160;-81
2024/02/04 08:58:15;;;;;;;13.70;1.20;;;11.10;99.90;;;;;;5081196;28;20569;-80
2024/02/04 09:00:40;;;;;;;14.10;1.70;;;11.10;99.90;;;;;;5082137;28;20161;-80
2024/02/04 09:03:06;;;;;;;13.83;1.27;;;11.10;99.90;;;;;;5063753;28;20156;-80
2024/02/04 09:05:32;;;;;;;14.40;1.40;;;11.10;99.90;;;;;;5064966;28;20259;-81
2024/02/04 09:07:57;;;;;;;14.03;1.40;;;11.10;99.90;;;;;;5064453;28;20653;-79
2024/02/04 09:10:23;;;;;;;14.20;1.30;;;11.20;99.90;;;;;;5081102;28;20196;-80
2024/02/04 09:12:49;;;;;;;13.60;1.23;;;11.20;99.90;;;;;;5079777;28;20210;-80
2024/02/04 09:15:15;;;;;;;14.67;1.30;;;11.30;99.90;;;;;;5079723;28;20286;-79
2024/02/04 09:17:40;;;;;;;14.93;1.47;;;11.30;99.90;;;;;;5080092;28;20560;-81
2024/02/04 09:20:07;;;;;;;13.73;1.20;;;11.30;99.90;;;;;;5079117;28;20529;-80
2024/02/04 09:22:33;;;;;;;14.00;1.23;;;11.30;99.90;;;;;;5079096;28;20214;-80
2024/02/04 09:24:59;;;;;;;13.47;1.10;;;11.30;99.90;;;;;;5078576;28;20169;-80
2024/02/04 09:27:25;;;;;;;13.70;1.47;;;11.30;99.90;;;;;;5080066;28;20243;-80
2024/02/04 09:29:51;;;;;;;14.15;1.55;;;11.30;99.90;;;;;;5079615;28;20915;-80
2024/02/04 09:32:17;;;;;;;14.02;1.25;;;11.30;99.90;;;;;;5080882;28;20171;-80
2024/02/04 09:34:43;;;;;;;13.67;1.00;;;11.30;99.90;;;;;;5062505;28;20263;-80
2024/02/04 09:37:09;;;;;;;15.55;1.63;;;11.30;99.90;;;;;;5061870;28;20438;-81
2024/02/04 09:39:34;;;;;;;13.83;1.27;;;11.30;99.90;;;;;;5079376;28;20680;-80
2024/02/04 09:42:00;;;;;;;14.77;1.43;;;11.30;99.90;;;;;;5062601;28;20169;-80
2024/02/04 09:44:26;;;;;;;13.68;1.33;;;11.40;99.90;;;;;;5080868;28;20232;-81
2024/02/04 09:46:53;;;;;;;13.60;1.17;;;11.40;99.90;;;;;;5080697;28;20264;-80
2024/02/04 09:49:20;;;;;;;13.73;1.20;;;11.40;99.90;;;;;;5062121;28;20414;-81
2024/02/04 09:51:47;;;;;;;13.95;1.30;;;11.40;99.90;;;;;;5082263;28;20580;-80
2024/02/04 09:54:16;;;;;;;14.30;1.50;;;11.40;99.90;;;;;;5081191;28;20242;-81
2024/02/04 09:56:42;;;;;;;14.52;1.42;;;11.40;99.90;;;;;;5079418;28;20157;-79
2024/02/04 09:59:07;;;;;;;14.25;1.48;;;11.50;99.90;;;;;;5079796;28;20244;-80
2024/02/04 10:01:34;;;;;;;14.23;1.23;;;11.50;99.90;;;;;;5081569;28;20223;-80
2024/02/04 10:04:00;;;;;;;14.82;1.63;;;11.50;99.90;;;;;;5082477;28;20160;-81
2024/02/04 10:06:26;;;;;;;15.73;1.47;;;11.60;99.90;;;;;;5082321;28;20172;-79
2024/02/04 10:08:51;;;;;;;15.40;1.20;;;11.60;99.90;;;;;;5081636;28;20199;-81
2024/02/04 10:11:17;;;;;;;14.20;1.47;;;11.60;99.90;;;;;;5081952;28;20173;-82
2024/02/04 10:13:47;;;;;;;13.80;1.37;;;11.60;99.90;;;;;;5083527;28;20211;-82
2024/02/04 10:16:14;;;;;;;13.73;1.50;;;11.60;99.90;;;;;;5084611;28;20399;-80
2024/02/04 10:18:49;;;;;;;13.55;1.10;;;11.50;99.90;;;;;;5084657;28;20176;-81
2024/02/04 10:21:23;;;;;;;13.60;1.17;;;11.50;99.90;;;;;;5084757;28;20213;-80
2024/02/04 10:23:50;;;;;;;13.80;1.15;;;11.50;99.90;;;;;;5067067;28;20526;-80
2024/02/04 10:26:16;;;;;;;13.45;1.10;;;11.60;99.90;;;;;;5081919;28;20164;-80
2024/02/04 10:28:44;;;;;;;14.00;1.52;;;11.60;99.90;;;;;;5082310;28;20241;-80
2024/02/04 10:31:10;;;;;;;14.80;1.40;;;11.60;99.90;;;;;;5081161;28;20169;-80
2024/02/04 10:33:37;;;;;;;13.50;1.17;;;11.50;99.90;;;;;;5081721;28;20180;-80
2024/02/04 10:36:03;;;;;;;15.77;1.55;;;11.60;99.90;;;;;;5084301;28;20485;-82
2024/02/04 10:38:29;;;;;;;14.45;1.70;;;11.60;99.90;;;;;;5086622;28;20204;-82
2024/02/04 10:40:55;;;;;;;14.57;1.90;;;11.70;99.90;;;;;;5087722;28;20167;-82
2024/02/04 10:43:21;;;;;;;16.63;1.30;;;11.80;99.90;;;;;;5087642;28;20161;-82
2024/02/04 10:45:52;;;;;;;13.75;1.30;;;11.80;99.90;;;;;;5068775;28;20169;-81
2024/02/04 10:48:22;;;;;;;14.82;1.40;;;11.70;99.90;;;;;;5085226;28;20184;-81
2024/02/04 10:50:51;;;;;;;14.07;1.27;;;11.70;99.90;;;;;;5067144;28;20204;-79
2024/02/04 10:53:20;;;;;;;13.45;1.10;;;11.70;99.90;;;;;;5087318;28;20172;-81
2024/02/04 10:55:49;;;;;;;14.50;1.40;;;11.70;99.90;;;;;;5088302;28;20149;-81
2024/02/04 10:58:16;;;;;;;13.65;1.20;;;11.80;99.90;;;;;;5084831;28;20181;-81
2024/02/04 11:00:43;;;;;;;13.70;1.38;;;11.80;99.90;;;;;;5066177;28;20164;-80
2024/02/04 11:03:10;;;;;;;13.77;1.15;;;11.80;99.90;;;;;;5084231;28;20237;-82
2024/02/04 11:05:38;;;;;;;13.57;1.00;;;11.80;99.90;;;;;;5084366;28;20161;-81
2024/02/04 11:08:04;;;;;;;16.20;1.10;;;11.80;99.90;;;;;;5083102;28;20180;-80
2024/02/04 11:10:31;;;;;;;13.80;1.10;;;11.80;99.90;;;;;;5081331;28;20208;-81
2024/02/04 11:13:00;;;;;;;13.25;0.90;;;11.80;99.90;;;;;;5063086;28;20203;-80
2024/02/04 11:15:32;;;;;;;13.77;1.20;;;11.80;99.90;;;;;;5080354;28;20290;-80
2024/02/04 11:18:10;;;;;;;13.75;1.27;;;11.80;99.90;;;;;;5060026;28;20196;-79
2024/02/04 11:20:54;;;;;;;13.35;0.95;;;11.80;99.90;;;;;;5058976;28;20172;-81
2024/02/04 11:23:28;;;;;;;14.10;1.30;;;11.70;99.90;;;;;;5078470;28;20195;-81
2024/02/04 11:25:57;;;;;;;13.45;0.90;;;11.70;99.90;;;;;;5078292;28;20149;-81
2024/02/04 11:28:23;;;;;;;13.57;1.00;;;11.80;99.90;;;;;;5059307;28;20211;-80
2024/02/04 11:30:50;;;;;;;13.65;1.30;;;11.70;99.90;;;;;;5078550;28;20210;-81
2024/02/04 11:33:21;;;;;;;13.25;1.10;;;11.80;99.90;;;;;;5061796;28;20173;-84
2024/02/04 11:35:47;;;;;;;13.38;1.10;;;11.80;99.90;;;;;;5079627;28;20145;-80
2024/02/04 11:38:17;;;;;;;13.70;1.35;;;11.70;99.90;;;;;;5077634;28;20200;-80
2024/02/04 11:40:45;;;;;;;13.25;1.15;;;11.70;99.90;;;;;;5079041;28;20153;-82
2024/02/04 11:43:11;;;;;;;13.82;1.30;;;11.80;99.90;;;;;;5080944;28;20183;-81
2024/02/04 11:45:39;;;;;;;14.30;1.17;;;11.80;99.90;;;;;;5079209;28;20637;-81
2024/02/04 11:48:07;;;;;;;13.88;1.70;;;11.80;99.90;;;;;;5080375;28;20186;-81
2024/02/04 11:50:34;;;;;;;13.43;1.20;;;11.80;99.90;;;;;;5079588;28;20211;-80
2024/02/04 11:53:11;;;;;;;13.90;1.20;;;11.80;99.90;;;;;;5078976;28;20163;-80
2024/02/04 11:55:40;;;;;;;16.85;1.83;;;11.80;99.90;;;;;;5077580;28;20237;-80
2024/02/04 11:58:06;;;;;;;13.63;1.10;;;11.80;99.90;;;;;;5078390;28;20172;-81
2024/02/04 12:00:36;;;;;;;13.63;1.10;;;11.90;99.90;;;;;;5061486;28;20249;-80
2024/02/04 12:03:02;;;;;;;13.48;1.40;;;12.00;99.90;;;;;;5078178;28;20164;-79
2024/02/04 12:05:32;;;;;;;13.80;1.23;;;12.10;99.90;;;;;;5061240;28;20176;-79
2024/02/04 12:07:58;;;;;;;14.07;1.13;;;12.10;99.90;;;;;;5061199;28;20266;-80
2024/02/04 12:10:26;;;;;;;14.38;1.45;;;12.10;99.90;;;;;;5060263;28;20711;-81
2024/02/04 12:12:52;;;;;;;13.23;1.23;;;12.00;99.90;;;;;;5078551;28;20169;-81
2024/02/04 12:15:18;;;;;;;14.70;1.40;;;12.00;99.90;;;;;;5079045;28;20192;-80
2024/02/04 12:17:43;;;;;;;13.77;1.50;;;12.00;99.90;;;;;;5060100;28;20191;-81
2024/02/04 12:20:10;;;;;;;13.83;1.47;;;12.00;99.90;;;;;;5078316;28;20164;-80
2024/02/04 12:22:36;;;;;;;14.27;1.80;;;12.00;99.90;;;;;;5077833;28;20243;-79
2024/02/04 12:25:03;;;;;;;14.10;1.60;;;12.00;99.90;;;;;;5078301;28;20715;-81
2024/02/04 12:27:29;;;;;;;13.65;1.55;;;12.00;99.90;;;;;;5060213;28;20199;-79
2024/02/04 12:29:55;;;;;;;16.00;1.53;;;12.00;99.90;;;;;;5078780;28;20633;-80
2024/02/04 12:32:20;;;;;;;14.02;1.38;;;11.90;99.90;;;;;;5059144;28;20171;-81